Time;durP1;ratioP1;P1;durP2;ratioP2;P2;SDS_P1;SDS_P2;PMS_P1;PMS_P2;Temp;Humidity;BMP_temperature;BMP_pressure;BME280_temperature;BME280_humidity;BME280_pressure;Samples;Min_cycle;Max_cycle;Signal;HPM_P1;HPM_P2
2022/08/27 00:00:09;;;;;;;9.73;7.35;;;;;;;25.67;36.35;100028.44;5069366;28;20020;-71
2022/08/27 00:02:35;;;;;;;10.15;7.40;;;;;;;25.63;36.46;100037.22;5087487;28;20032;-72
2022/08/27 00:05:02;;;;;;;13.73;7.55;;;;;;;25.54;36.54;100031.97;5087565;28;20084;-71
2022/08/27 00:07:28;;;;;;;9.60;7.25;;;;;;;25.52;36.67;100030.53;5087299;28;20024;-71
2022/08/27 00:09:53;;;;;;;12.38;7.85;;;;;;;25.52;36.77;100041.38;5086640;28;20200;-72
2022/08/27 00:12:19;;;;;;;9.98;7.85;;;;;;;25.57;36.37;100047.81;5087377;28;20030;-72
2022/08/27 00:14:45;;;;;;;12.75;8.23;;;;;;;25.62;36.74;100033.66;5089078;28;20024;-71
2022/08/27 00:17:11;;;;;;;12.65;7.85;;;;;;;25.61;36.38;100039.28;5091585;28;20070;-71
2022/08/27 00:19:38;;;;;;;10.95;8.32;;;;;;;25.52;36.60;100036.78;5091132;28;20051;-71
2022/08/27 00:22:04;;;;;;;12.73;7.43;;;;;;;25.50;36.61;100032.59;5091528;28;20035;-71
2022/08/27 00:24:30;;;;;;;12.43;7.55;;;;;;;25.47;36.75;100038.44;5091439;28;20249;-71
2022/08/27 00:26:56;;;;;;;10.73;8.38;;;;;;;25.43;36.72;100035.31;5073871;28;20031;-72
2022/08/27 00:29:21;;;;;;;10.40;8.02;;;;;;;25.41;37.08;100030.13;5090993;28;20028;-72
2022/08/27 00:31:47;;;;;;;12.95;7.80;;;;;;;25.37;36.85;100044.22;5091337;28;20084;-71
2022/08/27 00:34:13;;;;;;;10.18;7.63;;;;;;;25.38;36.89;100040.47;5090883;28;20016;-70
2022/08/27 00:36:39;;;;;;;15.40;8.82;;;;;;;25.33;37.20;100034.84;5090951;28;20216;-72
2022/08/27 00:39:05;;;;;;;11.55;7.95;;;;;;;25.28;37.26;100046.31;5091080;28;20017;-71
2022/08/27 00:41:32;;;;;;;11.90;7.88;;;;;;;25.23;37.65;100044.19;5091160;28;20031;-70
2022/08/27 00:44:00;;;;;;;12.63;8.60;;;;;;;25.23;37.60;100044.19;5091060;28;20027;-71
2022/08/27 00:46:53;;;;;;;10.85;7.78;;;;;;;25.20;37.31;100050.06;5086893;28;20020;-70
2022/08/27 00:49:30;;;;;;;15.85;8.07;;;;;;;25.16;37.36;100048.78;5090918;28;20080;-71
2022/08/27 00:52:00;;;;;;;14.30;8.57;;;;;;;25.13;37.51;100055.44;5090640;28;20050;-71
2022/08/27 00:54:27;;;;;;;9.38;7.68;;;;;;;25.10;37.49;100055.00;5090245;28;20020;-72
2022/08/27 00:56:53;;;;;;;12.15;7.85;;;;;;;25.03;37.76;100043.34;5090539;28;20025;-71
2022/08/27 00:59:22;;;;;;;11.38;8.07;;;;;;;25.02;37.98;100044.38;5090778;28;20295;-71
2022/08/27 01:04:34;;;;;;;10.15;8.60;;;;;;;25.01;37.91;100046.22;5090113;28;20071;-71
2022/08/27 01:07:01;;;;;;;13.10;7.85;;;;;;;24.98;38.09;100046.66;5090647;28;20043;-72
2022/08/27 01:09:27;;;;;;;11.60;7.60;;;;;;;24.95;37.90;100042.47;5090395;28;20028;-72
2022/08/27 01:11:55;;;;;;;12.25;7.90;;;;;;;24.99;38.11;100042.91;5090370;28;20091;-71
2022/08/27 01:14:20;;;;;;;13.00;8.02;;;;;;;25.05;38.08;100044.78;5090426;28;20028;-70
2022/08/27 01:16:53;;;;;;;9.98;8.25;;;;;;;25.01;38.00;100050.81;5090513;28;20233;-70
2022/08/27 01:19:32;;;;;;;15.32;8.38;;;;;;;24.95;38.40;100056.00;5081992;28;20098;-71
2022/08/27 01:22:14;;;;;;;9.70;8.05;;;;;;;24.88;38.30;100052.44;5070333;28;20091;-71
2022/08/27 01:24:42;;;;;;;15.82;8.13;;;;;;;24.86;38.42;100051.81;5072180;28;20027;-71
2022/08/27 01:27:12;;;;;;;17.73;8.82;;;;;;;24.84;38.41;100059.28;5090300;28;20066;-70
2022/08/27 01:29:38;;;;;;;13.02;8.48;;;;;;;24.81;38.36;100046.16;5090222;28;20028;-71
2022/08/27 01:32:28;;;;;;;11.90;8.15;;;;;;;24.79;38.55;100059.06;5090177;28;20039;-71
2022/08/27 01:34:55;;;;;;;13.95;9.05;;;;;;;24.70;38.74;100063.84;5089336;28;20028;-71
2022/08/27 01:37:22;;;;;;;18.17;8.00;;;;;;;24.65;39.20;100053.56;5089617;28;20051;-70
2022/08/27 01:39:47;;;;;;;12.95;8.35;;;;;;;24.68;38.73;100061.28;5089672;28;20226;-71
2022/08/27 01:42:18;;;;;;;13.75;8.20;;;;;;;24.66;38.90;100057.94;5089768;28;20153;-71
2022/08/27 01:44:56;;;;;;;16.52;8.75;;;;;;;24.69;39.09;100064.84;5089989;28;20031;-71
2022/08/27 01:47:24;;;;;;;20.10;8.85;;;;;;;24.64;39.17;100059.19;5089731;28;20240;-70
2022/08/27 01:49:50;;;;;;;12.55;8.38;;;;;;;24.58;39.31;100052.69;5089617;28;20077;-69
2022/08/27 01:52:19;;;;;;;16.17;9.02;;;;;;;24.65;39.29;100058.16;5072211;28;20016;-70
2022/08/27 01:54:46;;;;;;;16.38;9.35;;;;;;;24.64;39.03;100064.59;5088867;28;20029;-71
2022/08/27 01:57:12;;;;;;;14.35;8.50;;;;;;;24.59;39.39;100065.19;5089786;28;20028;-71
2022/08/27 01:59:38;;;;;;;14.77;9.50;;;;;;;24.51;39.48;100073.47;5089355;28;20020;-72
2022/08/27 02:02:04;;;;;;;15.30;9.20;;;;;;;24.50;39.47;100064.53;5089644;28;20213;-73
2022/08/27 02:04:30;;;;;;;22.65;9.98;;;;;;;24.52;39.66;100075.13;5089534;28;20020;-71
2022/08/27 02:06:57;;;;;;;18.60;8.50;;;;;;;24.49;39.65;100070.13;5089549;28;20070;-71
2022/08/27 02:09:23;;;;;;;14.82;9.80;;;;;;;24.45;39.50;100068.88;5071136;28;20033;-70
2022/08/27 02:11:49;;;;;;;18.02;9.07;;;;;;;24.42;40.00;100074.66;5069431;28;20024;-72
2022/08/27 02:14:14;;;;;;;18.33;9.15;;;;;;;24.42;39.69;100070.06;5069272;28;20264;-71
2022/08/27 02:16:40;;;;;;;19.17;9.85;;;;;;;24.43;39.99;100071.75;5069324;28;20025;-71
2022/08/27 02:19:06;;;;;;;17.40;9.05;;;;;;;24.42;39.88;100064.66;5073201;28;20158;-71
2022/08/27 02:21:32;;;;;;;15.50;8.52;;;;;;;24.43;40.08;100065.53;5089024;28;20040;-71
2022/08/27 02:23:57;;;;;;;12.43;8.93;;;;;;;24.41;40.28;100067.59;5088927;28;20028;-71
2022/08/27 02:26:23;;;;;;;16.80;9.50;;;;;;;24.34;40.41;100073.78;5089184;28;20031;-72
2022/08/27 02:28:49;;;;;;;15.23;9.13;;;;;;;24.31;40.50;100074.19;5089073;28;20087;-72
2022/08/27 02:31:16;;;;;;;16.65;9.32;;;;;;;24.30;40.63;100080.63;5088671;28;20028;-71
2022/08/27 02:33:42;;;;;;;16.35;9.15;;;;;;;24.31;40.25;100067.94;5088344;28;20032;-70
2022/08/27 02:36:08;;;;;;;15.13;9.38;;;;;;;24.33;40.05;100071.28;5088301;28;20099;-71
2022/08/27 02:38:34;;;;;;;17.23;9.88;;;;;;;24.32;40.51;100067.75;5088325;28;20024;-72
2022/08/27 02:40:59;;;;;;;22.33;10.07;;;;;;;24.30;40.45;100080.63;5088901;28;20103;-71
2022/08/27 02:43:25;;;;;;;20.77;9.45;;;;;;;24.28;40.60;100085.41;5088775;28;20034;-71
2022/08/27 02:45:50;;;;;;;18.98;9.98;;;;;;;24.24;40.67;100076.00;5088246;28;20028;-71
2022/08/27 02:48:16;;;;;;;14.00;9.52;;;;;;;24.23;40.91;100077.03;5088133;28;20081;-71
2022/08/27 02:50:42;;;;;;;25.30;10.95;;;;;;;24.27;40.72;100074.75;5088714;28;20028;-72
2022/08/27 02:53:09;;;;;;;23.52;10.80;;;;;;;24.26;41.21;100078.53;5088538;28;20078;-71
2022/08/27 02:55:34;;;;;;;22.17;10.32;;;;;;;24.20;40.80;100077.44;5088487;28;20028;-72
2022/08/27 02:58:00;;;;;;;22.73;11.65;;;;;;;24.17;40.91;100083.25;5075453;28;20024;-72
2022/08/27 03:00:27;;;;;;;16.58;9.02;;;;;;;24.11;41.44;100079.47;5068473;28;20092;-71
2022/08/27 03:02:53;;;;;;;17.67;11.48;;;;;;;24.14;41.39;100094.44;5068371;28;20080;-71
2022/08/27 03:05:19;;;;;;;16.42;9.32;;;;;;;24.20;41.06;100083.69;5068437;28;20215;-71
2022/08/27 03:07:45;;;;;;;20.80;9.70;;;;;;;24.23;40.98;100087.84;5072809;28;20043;-71
2022/08/27 03:10:13;;;;;;;18.45;9.85;;;;;;;24.21;41.46;100090.75;5087963;28;20016;-70
2022/08/27 03:12:39;;;;;;;21.08;11.40;;;;;;;24.18;41.56;100093.84;5087449;28;20082;-71
2022/08/27 03:15:09;;;;;;;21.85;11.48;;;;;;;24.16;41.27;100089.69;5088029;28;20021;-71
2022/08/27 03:20:19;;;;;;;18.25;11.15;;;;;;;24.29;41.08;100094.34;5088205;28;20145;-72
2022/08/27 03:22:45;;;;;;;26.58;10.73;;;;;;;24.43;41.08;100106.09;5087234;28;20021;-72
2022/08/27 03:25:11;;;;;;;30.00;12.63;;;;;;;24.50;41.34;100106.94;5087927;28;20028;-72
2022/08/27 03:27:37;;;;;;;19.35;10.20;;;;;;;24.40;41.30;100110.03;5087481;28;20024;-73
2022/08/27 03:30:09;;;;;;;13.70;9.77;;;;;;;24.43;41.26;100112.31;5087991;28;20047;-71
2022/08/27 03:32:35;;;;;;;19.15;11.05;;;;;;;24.43;41.45;100108.78;5087873;28;20145;-71
2022/08/27 03:35:02;;;;;;;19.27;10.35;;;;;;;24.46;41.32;100116.53;5087824;28;20032;-71
2022/08/27 03:37:27;;;;;;;23.05;12.52;;;;;;;24.49;41.41;100106.13;5087629;28;20034;-72
2022/08/27 03:39:53;;;;;;;23.83;11.45;;;;;;;24.48;41.68;100112.56;5086440;28;20032;-73
2022/08/27 03:42:20;;;;;;;22.65;12.02;;;;;;;24.51;41.77;100109.47;5087059;28;20084;-71
2022/08/27 03:44:45;;;;;;;19.52;11.23;;;;;;;24.51;41.73;100116.75;5087337;28;20137;-72
2022/08/27 03:47:11;;;;;;;25.95;11.30;;;;;;;24.49;41.63;100118.81;5075155;28;20025;-71
2022/08/27 03:49:37;;;;;;;23.90;12.95;;;;;;;24.43;42.55;100103.38;5081792;28;20028;-72
2022/08/27 03:52:02;;;;;;;23.30;11.68;;;;;;;24.41;42.75;100105.44;5087681;28;20024;-72
2022/08/27 03:54:28;;;;;;;24.35;12.68;;;;;;;24.42;42.98;100102.53;5087053;28;20016;-72
2022/08/27 03:56:53;;;;;;;22.55;11.73;;;;;;;24.44;42.55;100110.47;5087282;28;20024;-71
2022/08/27 03:59:19;;;;;;;16.70;11.32;;;;;;;24.44;42.65;100103.19;5086852;28;20027;-71
2022/08/27 04:01:44;;;;;;;24.35;12.02;;;;;;;24.46;43.28;100106.53;5087493;28;20024;-71
2022/08/27 04:04:11;;;;;;;22.80;12.05;;;;;;;24.49;43.07;100102.56;5087478;28;20068;-73
2022/08/27 04:06:37;;;;;;;23.10;12.90;;;;;;;24.49;43.56;100099.88;5087501;28;20087;-73
2022/08/27 04:09:04;;;;;;;23.77;12.32;;;;;;;24.46;43.12;100101.09;5086973;28;20020;-71
2022/08/27 04:11:32;;;;;;;22.25;12.75;;;;;;;24.47;43.26;100100.06;5087144;28;20046;-72
2022/08/27 04:13:57;;;;;;;19.88;12.52;;;;;;;24.49;43.74;100114.25;5087285;28;20082;-72
2022/08/27 04:16:24;;;;;;;24.40;12.15;;;;;;;24.50;43.50;100107.81;5087426;28;20032;-73
2022/08/27 04:18:49;;;;;;;23.40;12.32;;;;;;;24.52;43.26;100107.59;5086812;28;20040;-70
2022/08/27 04:21:15;;;;;;;23.30;12.80;;;;;;;24.53;43.65;100099.28;5087366;28;20021;-71
2022/08/27 04:23:41;;;;;;;21.13;11.57;;;;;;;24.60;43.47;100101.19;5086552;28;20105;-73
2022/08/27 04:26:10;;;;;;;20.77;11.70;;;;;;;24.66;43.53;100103.09;5087161;28;20153;-72
2022/08/27 04:28:36;;;;;;;23.70;13.00;;;;;;;24.71;43.07;100106.06;5087269;28;20095;-71
2022/08/27 04:31:02;;;;;;;25.92;13.02;;;;;;;24.77;42.92;100104.44;5087363;28;20024;-71
2022/08/27 04:33:28;;;;;;;24.73;13.00;;;;;;;24.78;43.00;100101.53;5086475;28;20059;-72
2022/08/27 04:36:01;;;;;;;24.42;11.48;;;;;;;24.86;42.86;100105.09;5078766;28;20028;-72
2022/08/27 04:38:27;;;;;;;27.02;14.48;;;;;;;24.92;42.54;100104.28;5072380;28;20031;-71
2022/08/27 04:43:36;;;;;;;22.50;14.35;;;;;;;25.02;42.24;100103.94;5086880;28;20091;-70
2022/08/27 04:46:02;;;;;;;28.70;14.20;;;;;;;25.06;42.43;100102.50;5087162;28;20044;-71
2022/08/27 04:48:27;;;;;;;28.40;13.05;;;;;;;25.11;42.19;100106.25;5086377;28;20020;-70
2022/08/27 04:50:53;;;;;;;35.92;16.83;;;;;;;25.12;42.01;100099.81;5087073;28;20115;-71
2022/08/27 04:53:19;;;;;;;28.55;13.75;;;;;;;25.12;42.25;100105.22;5087000;28;20062;-71
2022/08/27 04:55:48;;;;;;;26.90;12.43;;;;;;;25.19;42.28;100109.81;5087039;28;20021;-71
2022/08/27 04:58:14;;;;;;;26.08;14.60;;;;;;;25.29;42.15;100115.69;5086561;28;20028;-72
2022/08/27 05:00:46;;;;;;;26.75;14.00;;;;;;;25.33;42.54;100108.81;5088588;28;20028;-72
2022/08/27 05:03:12;;;;;;;24.92;14.90;;;;;;;25.33;42.59;100114.22;5090893;28;20025;-71
2022/08/27 05:05:37;;;;;;;23.17;13.55;;;;;;;25.34;42.58;100115.06;5090730;28;20017;-75
2022/08/27 05:08:05;;;;;;;23.70;14.57;;;;;;;25.62;42.29;100112.22;5088225;28;20188;-73
2022/08/27 05:10:37;;;;;;;26.73;14.80;;;;;;;25.87;42.08;100109.75;5070836;28;20133;-74
2022/08/27 05:13:03;;;;;;;27.17;15.10;;;;;;;26.22;40.73;100116.88;5072711;28;20210;-73
2022/08/27 05:15:29;;;;;;;25.55;13.57;;;;;;;26.49;39.88;100111.41;5090465;28;20091;-75
2022/08/27 05:17:59;;;;;;;34.45;15.25;;;;;;;26.71;39.60;100106.53;5089878;28;20028;-70
2022/08/27 05:20:25;;;;;;;30.93;15.33;;;;;;;26.86;39.52;100103.63;5090211;28;20031;-71
2022/08/27 05:22:51;;;;;;;22.58;14.43;;;;;;;26.94;39.78;100108.78;5090353;28;20084;-72
2022/08/27 05:25:16;;;;;;;34.60;15.38;;;;;;;27.08;39.75;100106.88;5080748;28;20233;-74
2022/08/27 05:27:42;;;;;;;24.30;13.98;;;;;;;27.17;39.99;100103.88;5070218;28;20142;-74
2022/08/27 05:30:08;;;;;;;35.47;15.45;;;;;;;27.25;40.38;100103.66;5090002;28;20021;-71
2022/08/27 05:32:33;;;;;;;24.13;14.90;;;;;;;27.42;39.51;100106.69;5089897;28;20175;-72
2022/08/27 05:34:58;;;;;;;23.95;13.40;;;;;;;27.56;38.43;100110.19;5090082;28;20017;-72
2022/08/27 05:37:24;;;;;;;25.67;14.10;;;;;;;27.62;37.93;100106.56;5089885;28;20062;-72
2022/08/27 05:39:49;;;;;;;24.33;12.52;;;;;;;27.74;37.69;100111.28;5089820;28;20035;-74
2022/08/27 05:42:15;;;;;;;29.65;12.73;;;;;;;27.78;37.25;100107.09;5090073;28;20233;-72
2022/08/27 05:44:40;;;;;;;23.27;11.88;;;;;;;27.82;37.34;100111.88;5090161;28;20119;-71
2022/08/27 05:47:06;;;;;;;21.98;12.25;;;;;;;27.87;37.68;100103.88;5089889;28;20132;-74
2022/08/27 05:49:32;;;;;;;23.10;12.98;;;;;;;27.80;37.60;100103.09;5089904;28;20028;-75
2022/08/27 05:51:57;;;;;;;19.45;13.02;;;;;;;27.67;38.03;100105.91;5090144;28;20030;-73
2022/08/27 05:54:23;;;;;;;23.63;13.40;;;;;;;27.47;38.29;100104.19;5089653;28;20021;-71
2022/08/27 05:56:48;;;;;;;29.67;14.25;;;;;;;27.30;38.52;100100.28;5089669;28;20308;-73
2022/08/27 06:01:58;;;;;;;23.63;12.50;;;;;;;27.13;39.45;100094.53;5089584;28;20027;-72
2022/08/27 06:04:24;;;;;;;25.38;12.80;;;;;;;27.08;39.35;100095.16;5089608;28;20016;-73
2022/08/27 06:06:51;;;;;;;16.92;11.85;;;;;;;27.05;40.29;100107.28;5089575;28;20024;-72
2022/08/27 06:09:25;;;;;;;25.20;12.50;;;;;;;27.04;40.35;100102.09;5089259;28;20027;-72
2022/08/27 06:11:53;;;;;;;31.88;13.13;;;;;;;27.02;40.48;100105.00;5087590;28;20020;-73
2022/08/27 06:14:18;;;;;;;27.08;12.18;;;;;;;27.00;40.06;100104.38;5086206;28;20074;-73
2022/08/27 06:16:44;;;;;;;25.27;12.63;;;;;;;27.00;39.74;100107.09;5089276;28;20020;-72
2022/08/27 06:19:13;;;;;;;23.55;12.77;;;;;;;27.01;39.27;100102.50;5088585;28;20040;-74
2022/08/27 06:21:40;;;;;;;28.23;11.95;;;;;;;27.01;39.25;100095.19;5089312;28;20024;-72
2022/08/27 06:24:06;;;;;;;22.70;12.25;;;;;;;27.02;38.97;100098.75;5089185;28;20126;-73
2022/08/27 06:26:32;;;;;;;23.00;11.95;;;;;;;27.02;39.28;100096.03;5089162;28;20032;-71
2022/08/27 06:29:02;;;;;;;20.52;11.05;;;;;;;27.03;39.75;100097.69;5088836;28;20017;-72
2022/08/27 06:31:28;;;;;;;23.08;12.23;;;;;;;27.01;39.82;100097.91;5089136;28;20265;-73
2022/08/27 06:33:59;;;;;;;18.80;11.70;;;;;;;27.03;40.54;100093.09;5071331;28;20025;-73
2022/08/27 06:36:24;;;;;;;24.40;12.57;;;;;;;27.03;40.55;100095.00;5088985;28;20025;-71
2022/08/27 06:38:51;;;;;;;20.35;12.68;;;;;;;27.05;40.64;100095.63;5088268;28;20051;-74
2022/08/27 06:41:19;;;;;;;28.50;14.60;;;;;;;27.05;39.79;100099.16;5088926;28;20016;-72
2022/08/27 06:43:45;;;;;;;32.13;16.42;;;;;;;27.09;39.53;100099.53;5088761;28;20017;-71
2022/08/27 06:46:15;;;;;;;34.33;17.88;;;;;;;27.09;39.62;100091.38;5088775;28;20087;-73
2022/08/27 06:48:43;;;;;;;37.38;18.48;;;;;;;27.10;39.25;100096.63;5088302;28;20074;-73
2022/08/27 06:51:16;;;;;;;32.97;22.05;;;;;;;27.11;39.27;100089.28;5088684;28;20115;-71
2022/08/27 06:53:42;;;;;;;37.97;23.05;;;;;;;27.14;39.37;100090.72;5088282;28;20035;-74
2022/08/27 06:56:10;;;;;;;38.80;24.98;;;;;;;27.15;39.13;100086.97;5088684;28;20083;-72
2022/08/27 06:58:36;;;;;;;43.35;24.50;;;;;;;27.13;39.02;100091.81;5088186;28;20179;-69
2022/08/27 07:01:21;;;;;;;43.85;25.15;;;;;;;27.13;39.10;100094.53;5086861;28;20107;-70
2022/08/27 07:03:47;;;;;;;46.17;26.70;;;;;;;27.14;38.90;100088.88;5082936;28;20225;-71
2022/08/27 07:06:15;;;;;;;42.50;27.25;;;;;;;27.16;38.49;100078.63;5068374;28;20070;-72
2022/08/27 07:08:41;;;;;;;39.05;26.90;;;;;;;27.17;38.19;100091.16;5080433;28;20218;-73
2022/08/27 07:11:08;;;;;;;46.30;27.77;;;;;;;27.19;38.16;100083.63;5087789;28;20069;-73
2022/08/27 07:13:35;;;;;;;43.55;26.25;;;;;;;27.20;37.80;100085.28;5087533;28;20188;-71
2022/08/27 07:16:05;;;;;;;46.13;27.13;;;;;;;27.22;37.72;100083.16;5088229;28;20025;-71
2022/08/27 07:18:31;;;;;;;45.33;27.90;;;;;;;27.25;37.51;100082.75;5087963;28;20067;-73
2022/08/27 07:20:57;;;;;;;44.05;26.30;;;;;;;27.27;37.09;100086.06;5087779;28;20024;-71
2022/08/27 07:23:22;;;;;;;39.00;25.40;;;;;;;27.29;37.14;100082.31;5087906;28;20032;-73
2022/08/27 07:25:48;;;;;;;44.80;24.70;;;;;;;27.32;36.89;100085.41;5087758;28;20024;-74
2022/08/27 07:28:13;;;;;;;37.78;22.10;;;;;;;27.30;36.12;100083.97;5070190;28;20012;-72
2022/08/27 07:30:39;;;;;;;34.30;22.25;;;;;;;27.32;36.65;100088.13;5087828;28;20020;-72
2022/08/27 07:33:04;;;;;;;26.30;18.10;;;;;;;27.32;35.88;100082.69;5087395;28;20141;-73
2022/08/27 07:35:30;;;;;;;34.78;20.42;;;;;;;27.35;35.48;100082.25;5069584;28;20242;-72
2022/08/27 07:37:56;;;;;;;33.55;18.83;;;;;;;27.36;35.19;100083.94;5087434;28;20031;-71
2022/08/27 07:40:23;;;;;;;32.60;17.55;;;;;;;27.38;34.69;100081.84;5087848;28;20032;-70
2022/08/27 07:45:33;;;;;;;25.90;17.98;;;;;;;27.40;35.35;100078.88;5087474;28;20073;-72
2022/08/27 07:47:58;;;;;;;33.50;18.35;;;;;;;27.41;35.25;100086.00;5087565;28;20035;-72
2022/08/27 07:50:24;;;;;;;27.60;18.30;;;;;;;27.43;34.79;100086.59;5087640;28;20091;-71
2022/08/27 07:52:50;;;;;;;30.13;17.35;;;;;;;27.46;34.32;100079.94;5086638;28;20036;-69
2022/08/27 07:55:16;;;;;;;22.63;16.80;;;;;;;27.49;34.07;100090.38;5087343;28;20024;-71
2022/08/27 07:57:43;;;;;;;31.27;17.75;;;;;;;27.52;33.64;100084.50;5087575;28;20109;-70
2022/08/27 08:00:10;;;;;;;25.10;18.23;;;;;;;27.52;33.30;100088.03;5087380;28;20020;-71
2022/08/27 08:02:36;;;;;;;26.88;17.25;;;;;;;27.54;33.04;100087.84;5087323;28;20024;-71
2022/08/27 08:05:02;;;;;;;31.27;19.42;;;;;;;27.54;32.84;100085.13;5087550;28;20032;-71
2022/08/27 08:07:28;;;;;;;29.10;17.73;;;;;;;27.55;32.76;100084.06;5086899;28;20008;-70
2022/08/27 08:09:54;;;;;;;29.60;17.77;;;;;;;27.54;32.72;100079.69;5087429;28;20042;-71
2022/08/27 08:12:19;;;;;;;29.58;17.38;;;;;;;27.58;33.30;100074.63;5087396;28;20185;-70
2022/08/27 08:14:45;;;;;;;27.33;17.77;;;;;;;27.57;34.07;100073.81;5087354;28;20020;-71
2022/08/27 08:17:12;;;;;;;26.45;16.40;;;;;;;27.57;33.37;100068.38;5087368;28;20025;-71
2022/08/27 08:19:39;;;;;;;34.90;17.55;;;;;;;27.60;33.43;100075.25;5086808;28;20036;-71
2022/08/27 08:22:04;;;;;;;28.52;16.90;;;;;;;27.63;33.30;100078.34;5087080;28;20020;-71
2022/08/27 08:24:30;;;;;;;28.60;17.70;;;;;;;27.63;33.00;100077.53;5087051;28;20079;-71
2022/08/27 08:26:55;;;;;;;27.50;16.48;;;;;;;27.66;33.13;100074.34;5087086;28;20189;-71
2022/08/27 08:29:20;;;;;;;24.42;16.30;;;;;;;27.67;33.15;100074.13;5086571;28;20028;-72
2022/08/27 08:31:46;;;;;;;27.60;16.23;;;;;;;27.68;34.20;100069.53;5086921;28;20032;-72
2022/08/27 08:34:11;;;;;;;21.75;16.33;;;;;;;27.67;34.04;100065.97;5087021;28;20261;-71
2022/08/27 08:36:37;;;;;;;27.35;17.35;;;;;;;27.66;34.35;100056.16;5090452;28;20050;-72
2022/08/27 08:39:02;;;;;;;27.73;14.45;;;;;;;27.67;33.43;100062.41;5090923;28;20315;-71
2022/08/27 08:41:47;;;;;;;23.42;14.50;;;;;;;27.71;33.48;100055.50;5091148;28;20130;-71
2022/08/27 08:44:19;;;;;;;18.83;13.18;;;;;;;27.69;32.86;100061.16;5070973;28;20028;-72
2022/08/27 08:46:52;;;;;;;18.35;12.60;;;;;;;27.71;31.82;100055.50;5071057;28;20032;-72
2022/08/27 08:49:30;;;;;;;18.95;12.35;;;;;;;27.75;31.74;100059.44;5068353;28;20036;-71
2022/08/27 08:52:07;;;;;;;19.30;12.98;;;;;;;27.78;31.60;100052.72;5090884;28;20021;-73
2022/08/27 08:54:33;;;;;;;21.05;12.18;;;;;;;27.80;32.56;100056.06;5090359;28;20062;-72
2022/08/27 08:57:12;;;;;;;20.55;13.38;;;;;;;27.77;32.83;100054.63;5090775;28;20024;-73
2022/08/27 08:59:44;;;;;;;19.48;11.38;;;;;;;27.79;31.04;100051.66;5073276;28;20142;-72
2022/08/27 09:02:14;;;;;;;22.05;12.15;;;;;;;27.83;30.88;100055.63;5090372;28;20252;-70
2022/08/27 09:04:42;;;;;;;18.55;12.85;;;;;;;27.87;30.93;100051.38;5090645;28;20024;-71
2022/08/27 09:07:33;;;;;;;15.52;11.63;;;;;;;27.87;30.21;100041.34;5090314;28;20077;-71
2022/08/27 09:10:30;;;;;;;18.40;12.25;;;;;;;27.91;30.62;100038.19;5070579;28;20017;-72
2022/08/27 09:13:01;;;;;;;18.60;11.70;;;;;;;27.92;30.69;100048.00;5085992;28;20032;-70
2022/08/27 09:15:31;;;;;;;17.65;11.20;;;;;;;27.92;31.69;100043.38;5090439;28;20241;-72
2022/08/27 09:18:12;;;;;;;30.15;12.73;;;;;;;27.90;30.57;100045.50;5090221;28;20032;-73
2022/08/27 09:20:39;;;;;;;20.23;11.95;;;;;;;27.92;29.84;100037.94;5090141;28;20036;-73
2022/08/27 09:23:18;;;;;;;17.88;11.57;;;;;;;27.96;29.60;100036.47;5089845;28;20309;-71
2022/08/27 09:25:45;;;;;;;19.38;10.90;;;;;;;28.01;29.51;100038.50;5089994;28;20017;-71
2022/08/27 09:31:07;;;;;;;16.08;10.23;;;;;;;28.06;29.56;100040.53;5089441;28;20027;-69
2022/08/27 09:33:33;;;;;;;17.90;11.25;;;;;;;28.06;29.55;100040.53;5079530;28;20137;-71
2022/08/27 09:36:06;;;;;;;18.45;10.65;;;;;;;28.07;29.48;100043.06;5089729;28;20032;-69
2022/08/27 09:38:34;;;;;;;16.15;10.43;;;;;;;28.06;29.80;100035.09;5089998;28;20089;-69
2022/08/27 09:41:04;;;;;;;16.88;11.15;;;;;;;28.06;29.84;100037.81;5089858;28;20024;-71
2022/08/27 09:43:33;;;;;;;17.02;10.68;;;;;;;28.07;29.44;100039.47;5089377;28;20142;-72
2022/08/27 09:46:06;;;;;;;15.93;10.75;;;;;;;28.09;29.75;100042.81;5089352;28;20213;-71
2022/08/27 09:48:36;;;;;;;15.18;11.13;;;;;;;28.07;30.15;100032.16;5071171;28;20168;-69
2022/08/27 09:51:09;;;;;;;12.98;10.15;;;;;;;28.07;30.16;100042.22;5090216;28;20039;-70
2022/08/27 09:53:46;;;;;;;16.77;11.32;;;;;;;28.07;30.02;100037.63;5089608;28;20017;-72
2022/08/27 09:56:27;;;;;;;19.67;11.88;;;;;;;28.08;30.35;100038.44;5089761;28;20233;-70
2022/08/27 09:59:01;;;;;;;21.88;11.68;;;;;;;28.08;30.36;100031.13;5089086;28;20039;-72
2022/08/27 10:01:29;;;;;;;13.60;10.57;;;;;;;28.08;30.66;100033.00;5089438;28;20091;-70
2022/08/27 10:04:14;;;;;;;13.63;9.95;;;;;;;28.05;31.09;100036.16;5089215;28;20040;-71
2022/08/27 10:06:50;;;;;;;16.60;12.45;;;;;;;28.03;30.99;100039.94;5089612;28;20034;-72
2022/08/27 10:09:21;;;;;;;15.70;11.45;;;;;;;28.07;31.08;100028.59;5089135;28;20051;-72
2022/08/27 10:11:56;;;;;;;15.90;11.45;;;;;;;28.08;30.96;100030.28;5089452;28;20051;-70
2022/08/27 10:14:38;;;;;;;16.70;11.45;;;;;;;28.06;31.18;100024.22;5088174;28;20028;-70
2022/08/27 10:17:18;;;;;;;21.10;12.68;;;;;;;28.05;30.91;100031.56;5069197;28;20146;-72
2022/08/27 10:19:44;;;;;;;15.60;11.43;;;;;;;28.04;31.39;100027.19;5069206;28;20044;-70
2022/08/27 10:22:15;;;;;;;22.73;13.98;;;;;;;28.05;31.24;100028.00;5069023;28;20035;-72
2022/08/27 10:25:15;;;;;;;20.10;12.77;;;;;;;28.08;31.35;100033.00;5077875;28;20024;-70
2022/08/27 10:27:46;;;;;;;20.98;14.07;;;;;;;28.08;31.51;100025.69;5088241;28;20036;-73
2022/08/27 10:30:32;;;;;;;17.25;13.48;;;;;;;28.08;31.21;100025.69;5089130;28;20226;-72
2022/08/27 10:33:06;;;;;;;27.42;14.18;;;;;;;28.11;31.13;100022.50;5088807;28;20031;-73
2022/08/27 10:35:56;;;;;;;20.10;12.52;;;;;;;28.15;30.75;100025.63;5088063;28;20095;-70
2022/08/27 10:38:21;;;;;;;19.35;12.77;;;;;;;28.16;31.14;100027.31;5088620;28;20044;-71
2022/08/27 10:41:16;;;;;;;17.08;13.25;;;;;;;28.17;31.36;100020.78;5088771;28;20069;-73
2022/08/27 10:44:03;;;;;;;15.85;12.23;;;;;;;28.15;31.41;100020.19;5088797;28;20043;-71
2022/08/27 10:46:46;;;;;;;14.93;12.73;;;;;;;28.14;31.86;100018.53;5088659;28;20089;-70
2022/08/27 10:49:30;;;;;;;16.30;11.93;;;;;;;28.15;31.82;100020.19;5088392;28;20036;-71
2022/08/27 10:51:59;;;;;;;19.02;12.95;;;;;;;28.15;31.80;100017.47;5088950;28;20247;-71
2022/08/27 10:54:37;;;;;;;17.20;10.43;;;;;;;28.16;31.24;100011.81;5088255;28;20288;-74
2022/08/27 10:57:26;;;;;;;18.27;11.32;;;;;;;28.23;30.82;100005.47;5088609;28;20091;-71
2022/08/27 11:00:00;;;;;;;13.00;11.10;;;;;;;28.27;30.67;100002.06;5087922;28;20024;-72
2022/08/27 11:02:32;;;;;;;13.10;10.73;;;;;;;28.35;30.72;100006.38;5088245;28;20024;-70
2022/08/27 11:05:05;;;;;;;19.08;10.68;;;;;;;28.35;30.94;100009.09;5068543;28;20086;-73
2022/08/27 11:07:37;;;;;;;12.40;10.40;;;;;;;28.32;31.04;100006.81;5070929;28;20036;-70
2022/08/27 11:10:12;;;;;;;19.15;12.93;;;;;;;28.32;30.90;100010.34;5086543;28;20024;-71
2022/08/27 11:12:43;;;;;;;17.15;11.70;;;;;;;28.33;30.82;100009.31;5068233;28;21620;-71
2022/08/27 11:15:20;;;;;;;12.80;11.43;;;;;;;28.32;30.92;100001.38;5068076;28;20024;-72
2022/08/27 11:17:54;;;;;;;16.25;12.65;;;;;;;28.33;31.07;100009.31;5069475;28;20100;-70
2022/08/27 11:20:43;;;;;;;18.38;13.25;;;;;;;28.33;31.36;100006.56;5085703;28;20320;-73
2022/08/27 11:23:13;;;;;;;17.13;13.25;;;;;;;28.35;31.18;100010.97;5088047;28;20036;-73
2022/08/27 11:25:52;;;;;;;19.90;13.93;;;;;;;28.34;31.46;100004.69;5088120;28;20133;-70
2022/08/27 11:28:28;;;;;;;20.30;13.60;;;;;;;28.36;31.50;99999.03;5087685;28;20136;-73
2022/08/27 11:31:20;;;;;;;22.52;14.20;;;;;;;28.36;31.46;99999.88;5087975;28;20024;-72
2022/08/27 11:34:15;;;;;;;18.70;13.80;;;;;;;28.38;31.16;99997.72;5087596;28;20221;-72
2022/08/27 11:37:05;;;;;;;20.17;13.98;;;;;;;28.38;31.51;99986.03;5087788;28;20030;-73